Time;durP1;ratioP1;P1;durP2;ratioP2;P2;SDS_P1;SDS_P2;PMS_P1;PMS_P2;Temp;Humidity;BMP_temperature;BMP_pressure;BME280_temperature;BME280_humidity;BME280_pressure;Samples;Min_cycle;Max_cycle;Signal;HPM_P1;HPM_P2
2023/11/17 00:00:08;;;;;;;1.27;1.00;;;;;;;;;;5020737;28;20053;-81
2023/11/17 00:02:36;;;;;;;1.70;1.50;;;;;;;;;;5040482;28;20037;-81
2023/11/17 00:05:04;;;;;;;5.10;1.30;;;;;;;;;;5018272;28;20429;-81
2023/11/17 00:07:32;;;;;;;2.38;1.40;;;;;;;;;;5021515;28;20053;-81
2023/11/17 00:09:59;;;;;;;1.77;1.45;;;;;;;;;;5039893;28;20060;-81
2023/11/17 00:12:27;;;;;;;3.67;1.88;;;;;;;;;;5005410;28;20045;-81
2023/11/17 00:14:55;;;;;;;2.53;1.75;;;;;;;;;;5019915;28;20057;-81
2023/11/17 00:17:23;;;;;;;4.13;1.58;;;;;;;;;;5024981;28;20064;-81
2023/11/17 00:19:51;;;;;;;2.75;2.28;;;;;;;;;;5022509;28;20053;-81
2023/11/17 00:22:20;;;;;;;2.28;1.60;;;;;;;;;;5022169;28;20056;-81
2023/11/17 00:24:47;;;;;;;1.98;1.23;;;;;;;;;;5025185;28;20511;-81
2023/11/17 00:27:15;;;;;;;2.00;1.60;;;;;;;;;;5005332;28;20049;-81
2023/11/17 00:29:43;;;;;;;1.77;1.65;;;;;;;;;;5020282;28;20072;-81
2023/11/17 00:32:12;;;;;;;1.50;1.38;;;;;;;;;;5038323;28;20445;-81
2023/11/17 00:34:40;;;;;;;1.73;1.63;;;;;;;;;;5003965;28;20060;-81
2023/11/17 00:37:07;;;;;;;2.88;1.73;;;;;;;;;;5005344;28;20060;-81
2023/11/17 00:39:37;;;;;;;2.53;2.05;;;;;;;;;;5031330;28;20417;-81
2023/11/17 00:42:07;;;;;;;1.92;1.73;;;;;;;;;;5007266;28;20049;-81
2023/11/17 00:44:35;;;;;;;1.85;1.40;;;;;;;;;;5024488;28;20560;-81
2023/11/17 00:47:04;;;;;;;2.88;1.20;;;;;;;;;;5005860;28;20061;-81
2023/11/17 00:49:36;;;;;;;1.75;1.63;;;;;;;;;;5022270;28;20064;-81
2023/11/17 00:52:05;;;;;;;2.00;1.70;;;;;;;;;;5020470;28;20053;-81
2023/11/17 00:54:37;;;;;;;1.40;1.30;;;;;;;;;;5003665;28;20057;-81
2023/11/17 00:57:04;;;;;;;2.28;1.92;;;;;;;;;;5001366;28;20060;-81
2023/11/17 00:59:33;;;;;;;2.08;1.70;;;;;;;;;;5006825;28;20062;-81
2023/11/17 01:02:01;;;;;;;2.28;1.58;;;;;;;;;;5019123;28;20054;-81
2023/11/17 01:04:29;;;;;;;2.10;1.38;;;;;;;;;;5004863;28;20448;-81
2023/11/17 01:06:58;;;;;;;2.08;1.88;;;;;;;;;;5021480;28;20049;-81
2023/11/17 01:09:26;;;;;;;2.25;1.80;;;;;;;;;;5021178;28;20045;-81
2023/11/17 01:11:53;;;;;;;2.33;1.80;;;;;;;;;;5005393;28;20049;-81
2023/11/17 01:14:21;;;;;;;2.75;1.45;;;;;;;;;;5006857;28;20044;-81
2023/11/17 01:16:49;;;;;;;2.97;1.80;;;;;;;;;;5003227;28;20060;-81
2023/11/17 01:19:16;;;;;;;1.75;1.65;;;;;;;;;;5020170;28;20087;-81
2023/11/17 01:21:45;;;;;;;2.17;1.25;;;;;;;;;;5000505;28;20041;-81
2023/11/17 01:24:14;;;;;;;1.73;1.23;;;;;;;;;;4998283;28;20054;-81
2023/11/17 01:26:42;;;;;;;1.77;1.33;;;;;;;;;;5012154;28;20045;-81
2023/11/17 01:29:08;;;;;;;4.00;1.65;;;;;;;;;;5004229;28;20053;-81
2023/11/17 01:31:36;;;;;;;1.92;1.60;;;;;;;;;;5019969;28;20052;-81
2023/11/17 01:34:04;;;;;;;1.90;1.38;;;;;;;;;;5003605;28;20062;-81
2023/11/17 01:36:32;;;;;;;1.80;1.20;;;;;;;;;;5019620;28;20053;-81
2023/11/17 01:38:59;;;;;;;1.80;1.60;;;;;;;;;;5004076;28;20552;-81
2023/11/17 01:41:28;;;;;;;2.70;1.75;;;;;;;;;;5004766;28;20053;-81
2023/11/17 01:43:55;;;;;;;2.22;1.73;;;;;;;;;;5025203;28;20034;-81
2023/11/17 01:46:22;;;;;;;1.65;1.25;;;;;;;;;;5002704;28;20061;-81
2023/11/17 01:48:50;;;;;;;2.35;2.15;;;;;;;;;;5004391;28;20049;-81
2023/11/17 01:51:17;;;;;;;2.50;1.50;;;;;;;;;;5003672;28;20053;-81
2023/11/17 01:53:44;;;;;;;2.53;1.75;;;;;;;;;;5001432;28;20378;-81
2023/11/17 01:56:14;;;;;;;2.88;1.60;;;;;;;;;;5019502;28;20046;-81
2023/11/17 01:58:44;;;;;;;4.10;1.67;;;;;;;;;;5019216;28;20049;-81
2023/11/17 02:01:11;;;;;;;2.40;2.03;;;;;;;;;;5007527;28;20053;-81
2023/11/17 02:03:40;;;;;;;1.40;1.20;;;;;;;;;;4996006;28;20620;-81
2023/11/17 02:06:21;;;;;;;2.20;1.85;;;;;;;;;;5007958;28;20064;-81
2023/11/17 02:08:54;;;;;;;6.18;2.67;;;;;;;;;;5000103;28;20049;-81
2023/11/17 02:11:25;;;;;;;5.17;2.70;;;;;;;;;;5018296;28;20057;-81
2023/11/17 02:14:01;;;;;;;4.63;2.90;;;;;;;;;;5003135;28;20304;-81
2023/11/17 02:16:33;;;;;;;4.38;3.20;;;;;;;;;;5006598;28;20611;-81
2023/11/17 02:19:04;;;;;;;5.30;4.35;;;;;;;;;;5005135;28;20398;-81
2023/11/17 02:21:32;;;;;;;3.63;2.97;;;;;;;;;;5002943;28;20049;-81
2023/11/17 02:24:01;;;;;;;4.28;3.50;;;;;;;;;;5002207;28;20768;-81
2023/11/17 02:26:35;;;;;;;5.45;3.90;;;;;;;;;;5016923;28;20052;-81
2023/11/17 02:29:07;;;;;;;5.13;3.63;;;;;;;;;;5000368;28;20049;-81
2023/11/17 02:31:36;;;;;;;3.75;3.28;;;;;;;;;;5016685;28;20060;-81
2023/11/17 02:34:07;;;;;;;5.38;4.13;;;;;;;;;;5004042;28;20057;-81
2023/11/17 02:36:34;;;;;;;5.13;4.28;;;;;;;;;;5035846;28;20054;-81
2023/11/17 02:39:14;;;;;;;6.45;4.18;;;;;;;;;;5002507;28;20053;-81
2023/11/17 02:41:47;;;;;;;5.00;4.50;;;;;;;;;;5076401;23;20045;-81
2023/11/17 02:44:16;;;;;;;7.45;5.53;;;;;;;;;;5073044;28;20500;-80
2023/11/17 02:46:45;;;;;;;7.00;4.72;;;;;;;;;;5060292;28;20685;-80
2023/11/17 02:49:22;;;;;;;10.38;6.75;;;;;;;;;;5040233;28;20044;-80
2023/11/17 02:51:51;;;;;;;12.27;6.38;;;;;;;;;;5056328;28;20059;-80
2023/11/17 02:54:21;;;;;;;6.47;5.65;;;;;;;;;;5037313;28;20056;-80
2023/11/17 02:56:50;;;;;;;9.73;7.88;;;;;;;;;;5039930;28;20532;-80
2023/11/17 02:59:19;;;;;;;7.22;6.00;;;;;;;;;;5041033;28;20053;-80
2023/11/17 03:01:50;;;;;;;7.82;6.78;;;;;;;;;;5057060;28;20059;-80
2023/11/17 03:04:20;;;;;;;11.15;6.72;;;;;;;;;;5046516;28;20040;-80
2023/11/17 03:06:50;;;;;;;7.93;6.97;;;;;;;;;;5029151;28;20044;-80
2023/11/17 03:09:22;;;;;;;10.02;8.10;;;;;;;;;;5034814;28;20500;-80
2023/11/17 03:11:50;;;;;;;10.70;8.25;;;;;;;;;;5038739;28;20040;-80
2023/11/17 03:14:19;;;;;;;12.13;8.02;;;;;;;;;;5049799;28;20563;-80
2023/11/17 03:16:52;;;;;;;8.70;7.82;;;;;;;;;;5054610;28;20650;-80
2023/11/17 03:19:23;;;;;;;10.82;7.93;;;;;;;;;;5028400;28;20044;-80
2023/11/17 03:21:54;;;;;;;7.55;6.05;;;;;;;;;;5040523;28;20122;-80
2023/11/17 03:24:23;;;;;;;10.80;7.43;;;;;;;;;;5052321;28;20040;-80
2023/11/17 03:26:52;;;;;;;9.75;6.70;;;;;;;;;;5036618;28;20056;-80
2023/11/17 03:29:21;;;;;;;10.10;7.57;;;;;;;;;;5028428;28;20045;-80
2023/11/17 03:31:49;;;;;;;7.45;6.25;;;;;;;;;;5056317;28;20036;-80
2023/11/17 03:34:23;;;;;;;9.00;6.15;;;;;;;;;;5054191;28;20048;-80
2023/11/17 03:36:54;;;;;;;;;;;;;;;;;;5034368;28;20055;-80
2023/11/17 03:39:21;;;;;;;7.80;5.32;;;;;;;;;;5050689;28;20303;-80
2023/11/17 03:41:49;;;;;;;7.38;5.63;;;;;;;;;;5047348;28;20036;-80
2023/11/17 03:44:16;;;;;;;10.63;6.20;;;;;;;;;;5025839;28;20045;-80
2023/11/17 03:46:45;;;;;;;6.47;5.63;;;;;;;;;;5040853;28;20060;-80
2023/11/17 03:49:13;;;;;;;6.80;6.07;;;;;;;;;;5040229;28;20051;-80
2023/11/17 03:51:42;;;;;;;11.63;6.47;;;;;;;;;;5037690;28;20041;-80
2023/11/17 03:54:09;;;;;;;9.35;5.20;;;;;;;;;;5035231;28;20056;-80
2023/11/17 03:56:36;;;;;;;7.78;5.70;;;;;;;;;;5054792;28;20045;-80
2023/11/17 03:59:13;;;;;;;7.40;4.95;;;;;;;;;;5040998;28;20049;-81
2023/11/17 04:01:41;;;;;;;7.43;5.07;;;;;;;;;;5054597;28;20049;-81
2023/11/17 04:04:09;;;;;;;8.38;5.70;;;;;;;;;;5037050;28;20068;-80
2023/11/17 04:06:37;;;;;;;8.18;6.57;;;;;;;;;;5047248;28;20515;-80
2023/11/17 04:09:07;;;;;;;5.95;5.22;;;;;;;;;;5054514;28;20052;-80
2023/11/17 04:11:35;;;;;;;8.73;5.40;;;;;;;;;;5038927;28;20052;-80
2023/11/17 04:14:07;;;;;;;7.05;5.53;;;;;;;;;;5052599;28;20048;-80
2023/11/17 04:16:34;;;;;;;9.27;4.97;;;;;;;;;;5036818;28;20059;-80
2023/11/17 04:19:03;;;;;;;8.00;4.60;;;;;;;;;;5045215;28;20440;-80
2023/11/17 04:21:30;;;;;;;7.82;5.78;;;;;;;;;;5057144;28;20049;-80
2023/11/17 04:23:58;;;;;;;6.50;4.85;;;;;;;;;;5025629;28;20049;-80
2023/11/17 04:26:29;;;;;;;7.78;5.47;;;;;;;;;;5026852;28;20048;-80
2023/11/17 04:28:56;;;;;;;6.03;5.18;;;;;;;;;;5056524;28;20052;-80
2023/11/17 04:31:24;;;;;;;12.27;6.55;;;;;;;;;;5042626;28;20059;-80
2023/11/17 04:33:51;;;;;;;5.28;4.43;;;;;;;;;;5029819;28;20054;-80
2023/11/17 04:36:21;;;;;;;7.10;5.30;;;;;;;;;;5030334;28;20080;-80
2023/11/17 04:38:49;;;;;;;5.47;4.65;;;;;;;;;;5036427;28;20044;-80
2023/11/17 04:41:19;;;;;;;6.25;5.28;;;;;;;;;;5057851;28;20061;-80
2023/11/17 04:43:48;;;;;;;6.65;3.97;;;;;;;;;;5066561;28;20045;-80
2023/11/17 04:46:19;;;;;;;6.88;4.70;;;;;;;;;;5053103;28;20048;-80
2023/11/17 04:48:47;;;;;;;6.40;4.60;;;;;;;;;;5029599;28;20487;-80
2023/11/17 04:51:15;;;;;;;5.90;5.25;;;;;;;;;;5056934;28;20037;-80
2023/11/17 04:53:43;;;;;;;6.70;5.15;;;;;;;;;;5041823;28;20047;-80
2023/11/17 04:56:13;;;;;;;5.55;4.85;;;;;;;;;;5056431;28;20068;-80
2023/11/17 04:58:40;;;;;;;6.47;4.40;;;;;;;;;;5043945;28;20585;-81
2023/11/17 05:01:10;;;;;;;7.07;4.65;;;;;;;;;;5057032;28;20491;-80
2023/11/17 05:03:39;;;;;;;9.30;4.30;;;;;;;;;;5052176;28;20064;-80
2023/11/17 05:06:07;;;;;;;6.40;4.30;;;;;;;;;;5032794;28;20140;-80
2023/11/17 05:08:36;;;;;;;6.75;5.10;;;;;;;;;;5058590;28;20308;-80
2023/11/17 05:11:05;;;;;;;7.03;4.82;;;;;;;;;;5054168;28;20048;-80
2023/11/17 05:13:33;;;;;;;5.60;4.38;;;;;;;;;;5060184;28;20055;-80
2023/11/17 05:16:03;;;;;;;7.65;4.55;;;;;;;;;;5073198;28;20055;-80
2023/11/17 05:18:31;;;;;;;7.53;4.95;;;;;;;;;;5082747;28;20035;-80
2023/11/17 05:20:59;;;;;;;5.18;4.68;;;;;;;;;;5075232;28;20032;-80
2023/11/17 05:23:26;;;;;;;6.53;5.25;;;;;;;;;;5082153;28;20020;-80
2023/11/17 05:25:53;;;;;;;4.07;3.20;;;;;;;;;;5077513;28;20017;-80
2023/11/17 05:28:21;;;;;;;4.65;4.15;;;;;;;;;;5068570;28;20040;-80
2023/11/17 05:30:48;;;;;;;6.45;4.30;;;;;;;;;;5058430;28;20052;-80
2023/11/17 05:33:17;;;;;;;5.40;4.53;;;;;;;;;;5062393;28;20052;-80
2023/11/17 05:35:46;;;;;;;6.05;4.88;;;;;;;;;;5050000;28;20056;-80
2023/11/17 05:38:16;;;;;;;7.93;4.15;;;;;;;;;;5053651;28;20048;-81
2023/11/17 05:40:46;;;;;;;4.82;3.83;;;;;;;;;;5033020;28;20052;-78
2023/11/17 05:43:14;;;;;;;4.55;4.07;;;;;;;;;;5071369;28;20048;-80
2023/11/17 05:45:41;;;;;;;5.18;4.15;;;;;;;;;;5047751;28;20052;-80
2023/11/17 05:48:10;;;;;;;18.35;4.28;;;;;;;;;;5040594;28;20503;-80
2023/11/17 05:50:37;;;;;;;5.40;4.15;;;;;;;;;;5041345;28;20048;-80
2023/11/17 05:53:06;;;;;;;4.47;4.00;;;;;;;;;;5053064;28;20056;-80
2023/11/17 05:55:33;;;;;;;8.02;5.72;;;;;;;;;;5034952;28;20515;-80
2023/11/17 05:58:01;;;;;;;12.00;5.47;;;;;;;;;;5049231;28;20052;-80
2023/11/17 06:00:28;;;;;;;10.05;5.28;;;;;;;;;;5052008;28;20048;-80
2023/11/17 06:02:55;;;;;;;4.72;4.20;;;;;;;;;;5036235;28;20131;-80
2023/11/17 06:05:25;;;;;;;4.45;4.00;;;;;;;;;;5069916;28;20045;-80
2023/11/17 06:07:53;;;;;;;7.43;5.28;;;;;;;;;;5038509;28;20048;-79
2023/11/17 06:10:22;;;;;;;8.27;5.38;;;;;;;;;;5035218;28;20052;-80
2023/11/17 06:12:50;;;;;;;5.07;4.55;;;;;;;;;;5020136;28;20055;-80
2023/11/17 06:15:20;;;;;;;6.00;4.53;;;;;;;;;;5047448;28;20055;-80
2023/11/17 06:17:50;;;;;;;5.78;5.25;;;;;;;;;;5039555;28;20493;-80
2023/11/17 06:20:18;;;;;;;8.82;6.43;;;;;;;;;;5040377;28;20052;-80
2023/11/17 06:22:46;;;;;;;6.43;4.63;;;;;;;;;;5053040;28;20048;-80
2023/11/17 06:25:13;;;;;;;5.47;4.85;;;;;;;;;;5037786;28;20059;-80
2023/11/17 06:27:42;;;;;;;7.35;4.90;;;;;;;;;;5057818;28;20063;-80
2023/11/17 06:30:11;;;;;;;7.97;6.25;;;;;;;;;;5038481;28;20048;-80
2023/11/17 06:32:38;;;;;;;6.68;5.40;;;;;;;;;;5032631;28;20059;-80
2023/11/17 06:35:06;;;;;;;9.45;5.97;;;;;;;;;;5067817;28;20432;-80
2023/11/17 06:37:34;;;;;;;7.55;5.82;;;;;;;;;;5054919;28;20044;-80
2023/11/17 06:40:06;;;;;;;6.90;5.90;;;;;;;;;;5020745;28;20041;-80
2023/11/17 06:42:33;;;;;;;7.55;5.38;;;;;;;;;;5056753;28;20063;-80
2023/11/17 06:45:03;;;;;;;6.47;5.88;;;;;;;;;;5051135;28;20416;-80
2023/11/17 08:43:21;;;;;;;18.98;7.57;;;;;;;;;;2698995;22;20049;-83
2023/11/17 08:45:56;;;;;;;11.30;7.60;;;;;;;;;;5020469;28;20053;-82
2023/11/17 08:48:26;;;;;;;7.40;6.65;;;;;;;;;;5016839;28;20056;-82
2023/11/17 08:50:53;;;;;;;9.38;7.07;;;;;;;;;;5027248;28;20068;-81
2023/11/17 08:53:20;;;;;;;8.82;6.57;;;;;;;;;;5000611;28;20057;-82
2023/11/17 08:55:48;;;;;;;10.20;7.13;;;;;;;;;;5016816;28;20536;-81
2023/11/17 08:58:15;;;;;;;8.77;7.03;;;;;;;;;;5022403;28;20052;-81
2023/11/17 09:00:42;;;;;;;11.93;6.40;;;;;;;;;;5016287;28;20060;-82
2023/11/17 09:03:11;;;;;;;7.63;6.45;;;;;;;;;;5002013;28;20057;-81
2023/11/17 09:05:39;;;;;;;8.48;7.07;;;;;;;;;;5019456;28;20449;-81
2023/11/17 09:08:07;;;;;;;10.02;8.00;;;;;;;;;;5017584;28;20072;-81
2023/11/17 09:10:35;;;;;;;11.65;6.07;;;;;;;;;;5013894;28;20814;-81
2023/11/17 09:13:05;;;;;;;9.52;6.63;;;;;;;;;;5001589;28;20041;-81
2023/11/17 09:15:33;;;;;;;10.13;6.50;;;;;;;;;;4997369;28;20527;-81
2023/11/17 09:18:01;;;;;;;8.63;6.57;;;;;;;;;;5021498;28;20050;-81
2023/11/17 09:20:29;;;;;;;10.18;7.03;;;;;;;;;;5019065;28;20615;-81
2023/11/17 09:22:57;;;;;;;11.35;6.90;;;;;;;;;;5015724;28;20417;-81
2023/11/17 09:25:28;;;;;;;10.07;6.38;;;;;;;;;;5016922;28;20428;-81
2023/11/17 09:28:33;;;;;;;;;;;;;;;;;;;;;
2023/11/17 12:55:24;;;;;;;4.72;4.18;;;;;;;;;;5836889;24;20040;-82
2023/11/17 12:58:36;;;;;;;5.55;3.10;;;;;;;;;;5898734;24;20026;-82
2023/11/17 13:01:17;;;;;;;8.88;3.80;;;;;;;;;;5968018;23;20025;-82
2023/11/17 13:04:31;;;;;;;4.75;3.30;;;;;;;;;;6133706;23;20022;-82
2023/11/17 13:07:28;;;;;;;3.70;3.03;;;;;;;;;;6075687;23;20018;-82
2023/11/17 13:11:14;;;;;;;3.67;3.17;;;;;;;;;;6092900;23;20026;-82
2023/11/17 13:14:29;;;;;;;;;;;;;;;;;;;;;
2023/11/17 13:25:07;;;;;;;5.50;4.38;;;;;;;;;;5985794;23;20027;-82
2023/11/17 13:27:38;;;;;;;4.55;2.78;;;;;;;;;;6050062;23;20038;-82
2023/11/17 13:30:09;;;;;;;3.95;3.53;;;;;;;;;;6107883;23;20369;-82
2023/11/17 13:32:56;;;;;;;4.35;3.15;;;;;;;;;;6165056;23;20027;-82
2023/11/17 13:35:24;;;;;;;3.53;2.45;;;;;;;;;;6165336;23;20020;-82
2023/11/17 13:37:53;;;;;;;4.40;2.85;;;;;;;;;;6192210;23;20024;-82
2023/11/17 13:40:31;;;;;;;3.70;3.03;;;;;;;;;;6191199;23;20341;-82
2023/11/17 13:42:59;;;;;;;2.67;2.17;;;;;;;;;;6190398;23;20013;-82
2023/11/17 13:45:32;;;;;;;4.50;3.67;;;;;;;;;;6188972;23;20762;-82
2023/11/17 13:48:00;;;;;;;3.50;2.50;;;;;;;;;;6165995;23;20021;-82
2023/11/17 13:50:28;;;;;;;4.47;2.75;;;;;;;;;;6165713;23;20016;-82
2023/11/17 13:52:58;;;;;;;4.43;3.63;;;;;;;;;;6188326;23;20017;-82
2023/11/17 13:55:27;;;;;;;5.22;3.38;;;;;;;;;;6165132;23;20025;-82
2023/11/17 13:58:02;;;;;;;4.18;3.42;;;;;;;;;;6189446;23;20028;-82
2023/11/17 14:00:29;;;;;;;5.32;3.63;;;;;;;;;;6163524;23;20025;-82
2023/11/17 14:02:57;;;;;;;4.65;3.30;;;;;;;;;;6163379;23;20021;-82
2023/11/17 14:05:28;;;;;;;3.72;3.10;;;;;;;;;;6187659;23;20044;-82
2023/11/17 14:08:01;;;;;;;5.22;4.03;;;;;;;;;;6188463;23;20013;-82
2023/11/17 14:10:28;;;;;;;4.88;3.83;;;;;;;;;;6162903;23;20017;-82
2023/11/17 14:12:56;;;;;;;4.82;3.78;;;;;;;;;;6163262;23;20017;-82
2023/11/17 14:15:26;;;;;;;4.82;4.15;;;;;;;;;;6164096;23;20028;-82
2023/11/17 14:17:56;;;;;;;4.53;3.72;;;;;;;;;;6164481;23;20025;-82
2023/11/17 14:20:31;;;;;;;3.60;3.30;;;;;;;;;;6186704;23;20460;-82
2023/11/17 14:22:59;;;;;;;6.10;3.80;;;;;;;;;;6163411;23;20028;-82
2023/11/17 14:25:28;;;;;;;3.42;2.95;;;;;;;;;;6165095;23;20070;-82
2023/11/17 14:27:55;;;;;;;4.15;3.30;;;;;;;;;;6165519;23;20016;-82
2023/11/17 14:30:27;;;;;;;4.85;3.67;;;;;;;;;;6167027;23;20469;-82
2023/11/17 14:33:01;;;;;;;3.78;3.42;;;;;;;;;;6167097;23;20020;-82
2023/11/17 14:35:28;;;;;;;4.70;4.22;;;;;;;;;;6200549;23;20013;-82
2023/11/17 14:37:59;;;;;;;4.82;4.20;;;;;;;;;;6190359;23;20016;-82
2023/11/17 14:58:29;;;;;;;4.32;3.20;;;;;;;;;;6127747;23;20454;-79
2023/11/17 15:01:27;;;;;;;3.95;3.33;;;;;;;;;;6128929;23;20026;-80
2023/11/17 15:04:02;;;;;;;3.70;3.38;;;;;;;;;;6167117;23;20326;-80
2023/11/17 15:06:33;;;;;;;3.35;3.05;;;;;;;;;;6143650;23;20017;-80
2023/11/17 15:09:09;;;;;;;3.97;3.67;;;;;;;;;;6134765;23;20008;-80
2023/11/17 15:11:43;;;;;;;4.20;3.65;;;;;;;;;;6137856;23;20461;-81
2023/11/17 15:14:17;;;;;;;7.60;4.95;;;;;;;;;;6145474;23;20013;-80
2023/11/17 16:01:21;;;;;;;;;;;;;;;;;;;;;
2023/11/17 17:43:43;;;;;;;10.63;8.57;;;;;;;;;;6214485;22;20019;-79
2023/11/17 17:47:04;;;;;;;13.02;8.70;;;;;;;;;;6155280;23;20028;-80
2023/11/17 17:49:45;;;;;;;9.95;8.90;;;;;;;;;;6199647;23;20521;-80
2023/11/17 17:52:17;;;;;;;14.55;9.10;;;;;;;;;;6187190;23;20017;-80
2023/11/17 17:54:47;;;;;;;9.63;8.38;;;;;;;;;;6191381;23;20016;-80
2023/11/17 17:57:18;;;;;;;9.70;8.75;;;;;;;;;;6213018;23;20016;-79
2023/11/17 17:59:52;;;;;;;10.73;9.13;;;;;;;;;;6198708;23;20025;-80
2023/11/17 18:02:20;;;;;;;10.65;9.45;;;;;;;;;;6189176;23;20027;-80
2023/11/17 18:04:48;;;;;;;12.38;10.70;;;;;;;;;;6190370;23;20032;-80
2023/11/17 18:07:17;;;;;;;12.07;10.77;;;;;;;;;;6165342;23;20021;-80
2023/11/17 18:09:50;;;;;;;13.88;11.80;;;;;;;;;;6188767;23;20028;-79
2023/11/17 18:12:18;;;;;;;11.53;9.60;;;;;;;;;;6162140;23;20021;-80
2023/11/17 18:14:55;;;;;;;11.75;9.02;;;;;;;;;;6164495;23;20017;-80
2023/11/17 18:17:29;;;;;;;10.57;8.73;;;;;;;;;;6173532;23;20025;-80
2023/11/17 18:20:04;;;;;;;10.88;8.15;;;;;;;;;;6195644;23;20023;-80
2023/11/17 18:22:43;;;;;;;10.10;8.10;;;;;;;;;;6192292;23;20027;-78
2023/11/17 18:25:13;;;;;;;8.20;7.10;;;;;;;;;;6186623;23;20021;-79
2023/11/17 18:27:44;;;;;;;12.27;8.60;;;;;;;;;;6187667;23;20020;-80
2023/11/17 18:30:14;;;;;;;9.02;7.55;;;;;;;;;;6163381;23;20023;-80
2023/11/17 18:32:46;;;;;;;10.18;7.95;;;;;;;;;;6164162;23;20020;-80
2023/11/17 18:35:16;;;;;;;8.68;7.75;;;;;;;;;;6187697;23;20020;-80
2023/11/17 18:37:45;;;;;;;9.18;7.55;;;;;;;;;;6162606;23;20016;-80
2023/11/17 18:40:15;;;;;;;11.93;9.40;;;;;;;;;;6163380;23;20020;-80
2023/11/17 18:42:43;;;;;;;10.07;8.98;;;;;;;;;;6188567;23;20016;-80
2023/11/17 18:45:12;;;;;;;10.73;8.90;;;;;;;;;;6188106;23;20392;-80
2023/11/17 18:47:42;;;;;;;8.85;7.95;;;;;;;;;;6216914;23;20020;-80
2023/11/17 18:50:16;;;;;;;9.85;7.50;;;;;;;;;;6163488;23;20016;-80
2023/11/17 18:52:46;;;;;;;13.02;8.48;;;;;;;;;;6196244;23;20503;-80
2023/11/17 18:55:16;;;;;;;9.05;7.70;;;;;;;;;;6162008;23;20352;-80
2023/11/17 18:57:49;;;;;;;9.35;8.43;;;;;;;;;;6198213;23;20031;-80
2023/11/17 19:00:19;;;;;;;8.63;7.70;;;;;;;;;;6160867;23;20013;-80
2023/11/17 19:02:52;;;;;;;11.68;8.85;;;;;;;;;;6190092;23;20473;-80
2023/11/17 19:05:25;;;;;;;8.77;7.88;;;;;;;;;;6193497;23;20031;-80
2023/11/17 19:07:54;;;;;;;10.63;8.75;;;;;;;;;;6193636;23;20017;-80
2023/11/17 19:10:26;;;;;;;;;;;;;;;;;;6225166;23;20020;-80
2023/11/17 19:12:55;;;;;;;10.18;7.05;;;;;;;;;;6191073;23;19919;-80
2023/11/17 19:15:23;;;;;;;10.55;7.55;;;;;;;;;;6189142;23;20020;-80
2023/11/17 19:17:51;;;;;;;11.07;7.43;;;;;;;;;;6191364;23;20043;-80
2023/11/17 19:20:22;;;;;;;10.68;8.18;;;;;;;;;;6218600;23;20009;-80
2023/11/17 19:22:49;;;;;;;11.20;9.30;;;;;;;;;;6218689;23;20013;-80
2023/11/17 19:25:17;;;;;;;10.13;8.82;;;;;;;;;;6191129;23;20493;-80
2023/11/17 19:27:44;;;;;;;10.20;8.38;;;;;;;;;;6219335;23;20012;-80
2023/11/17 19:30:16;;;;;;;8.07;7.28;;;;;;;;;;6217108;23;20019;-80
2023/11/17 19:32:48;;;;;;;8.45;7.57;;;;;;;;;;6168359;23;20020;-80
2023/11/17 19:35:18;;;;;;;11.88;7.82;;;;;;;;;;6216929;23;20025;-80
2023/11/17 19:37:46;;;;;;;9.75;8.75;;;;;;;;;;6166052;23;20035;-80
2023/11/17 19:40:14;;;;;;;9.35;8.45;;;;;;;;;;6189649;23;20487;-80
2023/11/17 19:42:43;;;;;;;9.15;8.27;;;;;;;;;;6191446;23;20365;-80
2023/11/17 19:45:19;;;;;;;8.52;7.63;;;;;;;;;;6217167;23;20031;-80
2023/11/17 19:47:49;;;;;;;7.88;6.95;;;;;;;;;;6167166;23;20017;-80
2023/11/17 19:50:21;;;;;;;7.47;6.32;;;;;;;;;;6187342;23;20027;-79
2023/11/17 19:52:55;;;;;;;6.88;6.15;;;;;;;;;;6188745;23;20421;-80
2023/11/17 19:55:33;;;;;;;7.45;6.80;;;;;;;;;;6164598;23;20027;-80
2023/11/17 19:58:14;;;;;;;8.85;7.10;;;;;;;;;;6199820;23;20012;-80
2023/11/17 20:01:16;;;;;;;;;;;;;;;;;;;;;
2023/11/17 20:03:50;;;;;;;7.43;5.95;;;;;;;;;;6188614;23;20013;-81
2023/11/17 20:06:22;;;;;;;9.02;7.78;;;;;;;;;;6164568;23;20023;-80
2023/11/17 20:08:52;;;;;;;7.00;5.85;;;;;;;;;;6217914;23;20020;-80
2023/11/17 20:11:22;;;;;;;6.90;6.20;;;;;;;;;;6167325;23;20020;-80
2023/11/17 20:13:51;;;;;;;6.30;5.65;;;;;;;;;;6191535;23;20031;-80
2023/11/17 20:16:52;;;;;;;8.02;5.60;;;;;;;;;;6169200;23;20020;-80
2023/11/17 20:19:27;;;;;;;6.68;6.05;;;;;;;;;;6200247;23;20012;-80
2023/11/17 20:22:00;;;;;;;9.02;7.00;;;;;;;;;;6166109;23;20027;-79
2023/11/17 20:24:33;;;;;;;6.25;5.65;;;;;;;;;;6201947;23;20016;-79
2023/11/17 20:27:00;;;;;;;6.57;5.68;;;;;;;;;;6113864;23;20031;-80
2023/11/17 20:29:37;;;;;;;6.20;5.60;;;;;;;;;;6164278;23;20020;-80
2023/11/17 20:32:15;;;;;;;6.35;5.65;;;;;;;;;;6165220;23;20035;-80
2023/11/17 20:34:50;;;;;;;5.70;5.00;;;;;;;;;;6197174;23;20024;-80
2023/11/17 20:37:21;;;;;;;5.68;4.93;;;;;;;;;;6184765;23;20016;-80
2023/11/17 20:39:52;;;;;;;6.78;5.03;;;;;;;;;;6198156;23;20016;-80
2023/11/17 20:42:19;;;;;;;5.85;5.35;;;;;;;;;;6186026;23;20032;-82
2023/11/17 20:44:47;;;;;;;6.93;4.85;;;;;;;;;;6160025;23;20039;-81
2023/11/17 20:47:14;;;;;;;5.13;4.13;;;;;;;;;;6161568;23;20017;-80
2023/11/17 20:49:43;;;;;;;7.05;5.95;;;;;;;;;;6161057;23;20025;-83
2023/11/17 20:52:15;;;;;;;6.15;5.38;;;;;;;;;;6180094;23;20017;-84
2023/11/17 20:54:44;;;;;;;4.80;4.30;;;;;;;;;;6179436;23;20020;-85
2023/11/17 20:57:13;;;;;;;6.05;4.80;;;;;;;;;;6190033;23;20028;-84
2023/11/17 20:59:40;;;;;;;5.88;4.70;;;;;;;;;;6179938;23;20017;-84
2023/11/17 21:02:09;;;;;;;6.25;5.32;;;;;;;;;;6157216;23;20028;-85
2023/11/17 21:04:37;;;;;;;5.95;4.93;;;;;;;;;;6156018;23;20338;-84
2023/11/17 21:07:05;;;;;;;5.22;4.60;;;;;;;;;;6179383;23;20020;-83
2023/11/17 21:09:34;;;;;;;5.53;4.97;;;;;;;;;;6182299;23;20021;-83
2023/11/17 21:12:06;;;;;;;6.38;4.47;;;;;;;;;;6183372;23;20021;-84
2023/11/17 21:14:35;;;;;;;6.03;5.43;;;;;;;;;;6177768;23;20365;-84
2023/11/17 21:17:03;;;;;;;5.10;4.70;;;;;;;;;;6182347;23;20024;-84
2023/11/17 21:19:30;;;;;;;5.68;5.07;;;;;;;;;;6200902;23;20345;-84
2023/11/17 21:21:58;;;;;;;5.88;5.00;;;;;;;;;;6187358;23;20036;-85
2023/11/17 21:24:25;;;;;;;6.50;5.80;;;;;;;;;;6156353;23;20024;-84
2023/11/17 21:26:52;;;;;;;5.78;5.18;;;;;;;;;;6180994;23;20024;-84
2023/11/17 21:29:24;;;;;;;17.95;5.30;;;;;;;;;;6180934;23;20017;-84
2023/11/17 21:31:51;;;;;;;9.10;6.15;;;;;;;;;;6181213;23;20490;-84
2023/11/17 21:34:19;;;;;;;5.55;4.95;;;;;;;;;;6178581;23;20024;-85
2023/11/17 21:36:50;;;;;;;6.07;5.47;;;;;;;;;;6179860;23;20025;-84
2023/11/17 21:39:20;;;;;;;6.03;5.47;;;;;;;;;;6181891;23;20483;-85
2023/11/17 21:41:48;;;;;;;6.15;5.15;;;;;;;;;;6159286;23;20017;-85
2023/11/17 21:44:17;;;;;;;5.60;5.10;;;;;;;;;;6159579;23;20468;-84
2023/11/17 21:46:49;;;;;;;6.68;5.00;;;;;;;;;;6165626;23;20104;-85
2023/11/17 21:49:17;;;;;;;6.10;4.95;;;;;;;;;;6186570;23;20020;-85
2023/11/17 21:51:46;;;;;;;6.82;6.15;;;;;;;;;;6186380;23;20016;-85
2023/11/17 21:54:16;;;;;;;6.60;5.55;;;;;;;;;;6183309;23;20029;-85
2023/11/17 21:56:45;;;;;;;6.35;5.75;;;;;;;;;;6158088;23;20017;-85
2023/11/17 21:59:12;;;;;;;8.35;5.72;;;;;;;;;;6185870;23;20021;-85
2023/11/17 22:01:40;;;;;;;6.82;5.90;;;;;;;;;;6212058;23;20016;-84
2023/11/17 22:04:08;;;;;;;7.40;5.90;;;;;;;;;;6184224;23;20024;-85
2023/11/17 22:06:49;;;;;;;7.75;6.90;;;;;;;;;;6161279;23;20027;-85
2023/11/17 22:09:17;;;;;;;10.60;6.05;;;;;;;;;;6221493;23;20016;-85
2023/11/17 22:11:46;;;;;;;7.43;6.53;;;;;;;;;;6160616;23;20013;-85
2023/11/17 22:14:14;;;;;;;8.82;5.80;;;;;;;;;;6159881;23;20017;-85
2023/11/17 22:16:46;;;;;;;6.87;6.20;;;;;;;;;;6195494;23;20031;-84
2023/11/17 22:19:15;;;;;;;7.15;5.95;;;;;;;;;;6135047;23;20032;-85
2023/11/17 22:21:47;;;;;;;8.15;7.18;;;;;;;;;;6160161;23;20461;-84
2023/11/17 22:24:16;;;;;;;9.43;8.10;;;;;;;;;;6159930;23;20020;-84
2023/11/17 22:26:44;;;;;;;8.13;7.32;;;;;;;;;;6185042;23;20024;-85
2023/11/17 22:29:11;;;;;;;10.40;8.43;;;;;;;;;;6211200;23;20016;-85
2023/11/17 22:31:39;;;;;;;11.57;8.45;;;;;;;;;;6185511;23;20008;-84
2023/11/17 22:34:06;;;;;;;9.60;8.02;;;;;;;;;;6161683;23;20471;-85
2023/11/17 22:36:35;;;;;;;8.85;7.60;;;;;;;;;;6185437;23;20484;-86
2023/11/17 22:39:07;;;;;;;9.50;8.05;;;;;;;;;;6160719;23;20028;-86
2023/11/17 22:41:35;;;;;;;11.95;7.65;;;;;;;;;;6179407;23;20021;-85
2023/11/17 22:44:02;;;;;;;9.65;8.05;;;;;;;;;;6188989;23;20409;-85
2023/11/17 22:46:31;;;;;;;10.80;8.98;;;;;;;;;;6155292;23;20041;-86
2023/11/17 22:49:03;;;;;;;9.25;7.53;;;;;;;;;;6182647;23;20024;-83
2023/11/17 22:51:31;;;;;;;10.02;7.55;;;;;;;;;;6181447;23;20033;-86
2023/11/17 22:53:59;;;;;;;8.88;7.40;;;;;;;;;;6181569;23;20034;-86
2023/11/17 22:56:29;;;;;;;8.55;7.18;;;;;;;;;;6154632;23;20027;-86
2023/11/17 22:58:56;;;;;;;6.40;5.70;;;;;;;;;;6155992;23;20667;-84
2023/11/17 23:01:28;;;;;;;6.72;6.10;;;;;;;;;;6180871;23;20024;-84
2023/11/17 23:03:56;;;;;;;6.65;6.05;;;;;;;;;;6183218;23;20031;-84
2023/11/17 23:06:24;;;;;;;8.88;7.25;;;;;;;;;;6182298;23;20036;-84
2023/11/17 23:08:53;;;;;;;10.52;6.63;;;;;;;;;;6156911;23;20048;-85
2023/11/17 23:11:26;;;;;;;7.15;6.13;;;;;;;;;;6183595;23;20028;-85
2023/11/17 23:13:56;;;;;;;10.13;8.27;;;;;;;;;;6181601;23;20024;-84
2023/11/17 23:16:25;;;;;;;11.43;7.85;;;;;;;;;;6157032;23;20024;-85